createdAt,value
2023-03-25T00:02:07.890Z,93.12
2023-03-25T00:17:08.481Z,91.68
2023-03-25T00:32:09.177Z,88.12
2023-03-25T00:47:09.441Z,83.73
2023-03-25T01:02:09.703Z,78.44
2023-03-25T01:17:10.160Z,76.32
2023-03-25T01:32:10.295Z,79.61
2023-03-25T01:47:10.540Z,77.76
2023-03-25T02:02:11.425Z,79.72
2023-03-25T02:17:12.086Z,77.28
2023-03-25T02:32:12.151Z,75.81
2023-03-25T02:47:12.450Z,80.36
2023-03-25T03:04:40.301Z,82.79
2023-03-25T03:19:41.082Z,80.97
2023-03-25T03:34:41.608Z,63.94
2023-03-25T03:49:42.288Z,59.93
2023-03-25T04:04:42.496Z,54.00
2023-03-25T04:19:42.694Z,50.60
2023-03-25T04:34:42.898Z,52.04
2023-03-25T04:49:43.150Z,52.04
2023-03-25T05:04:43.366Z,53.81
2023-03-25T05:19:43.552Z,57.29
2023-03-25T05:34:43.985Z,60.30
2023-03-25T05:49:43.932Z,67.33
2023-03-25T06:04:44.169Z,75.63
2023-03-25T06:19:44.498Z,83.46
2023-03-25T06:34:44.647Z,96.15
2023-03-25T06:49:45.250Z,99.99
2023-03-25T07:04:45.109Z,99.84
2023-03-25T07:19:45.457Z,94.90
2023-03-25T07:34:45.280Z,92.50
2023-03-25T07:49:45.289Z,92.08
2023-03-25T08:04:46.165Z,94.62
2023-03-25T08:19:46.884Z,92.58
2023-03-25T08:34:47.035Z,86.88
2023-03-25T08:49:47.422Z,89.78
2023-03-25T09:04:47.584Z,90.08
2023-03-25T09:19:48.228Z,86.65
2023-03-25T09:34:48.681Z,82.35
2023-03-25T09:49:48.844Z,85.08
2023-03-25T10:04:48.847Z,82.70
2023-03-25T10:19:48.488Z,76.01
2023-03-25T10:34:49.008Z,74.34
2023-03-25T10:49:49.115Z,75.40
2023-03-25T11:04:48.758Z,74.31
2023-03-25T11:19:49.256Z,74.35
2023-03-25T11:34:49.351Z,72.11
2023-03-25T11:49:48.987Z,72.08
2023-03-25T12:04:49.088Z,83.54
2023-03-25T12:19:50.902Z,83.76
2023-03-25T12:34:50.930Z,77.12
2023-03-25T12:49:50.689Z,96.08
2023-03-25T13:04:50.686Z,94.56
2023-03-25T13:19:51.214Z,92.11
2023-03-25T13:34:50.898Z,89.81
2023-03-25T13:49:51.325Z,82.38
2023-03-25T14:04:51.055Z,78.21
2023-03-25T14:57:03.616Z,98.58
2023-03-25T15:12:03.639Z,98.99
2023-03-25T15:27:03.806Z,94.23
2023-03-25T15:42:03.784Z,91.54
2023-03-25T15:57:03.920Z,78.81
2023-03-25T16:12:03.976Z,76.97
2023-03-25T16:27:05.161Z,73.69
2023-03-25T16:42:05.129Z,73.56
2023-03-25T16:57:05.674Z,73.16
2023-03-25T17:12:05.356Z,73.25
2023-03-25T17:27:05.508Z,72.99
2023-03-25T17:42:05.831Z,72.29
2023-03-25T17:57:05.554Z,72.59
2023-03-25T18:12:06.052Z,72.39
2023-03-25T18:27:05.707Z,72.59
2023-03-25T18:42:05.766Z,72.49
2023-03-25T18:57:06.059Z,72.79
2023-03-25T19:12:05.941Z,72.42
2023-03-25T19:27:06.136Z,73.39
2023-03-25T19:42:06.117Z,73.96
2023-03-25T19:57:06.726Z,74.66
2023-03-25T20:12:07.276Z,75.56
2023-03-25T20:27:07.818Z,76.10
2023-03-25T20:42:07.950Z,76.70
2023-03-25T20:57:08.111Z,76.70
2023-03-25T21:12:08.538Z,76.84
2023-03-25T21:27:08.260Z,76.74
2023-03-25T21:42:09.885Z,77.00
2023-03-25T21:57:23.477Z,75.96
2023-03-25T22:12:24.094Z,75.46
2023-03-25T22:27:24.651Z,75.16
2023-03-25T22:42:24.692Z,75.00
2023-03-25T22:57:25.244Z,75.04
2023-03-25T23:12:25.791Z,75.07
2023-03-25T23:27:25.570Z,74.17
2023-03-25T23:42:35.558Z,74.51
2023-03-25T23:57:31.162Z,74.20
